Time;durP1;ratioP1;P1;durP2;ratioP2;P2;SDS_P1;SDS_P2;PMS_P1;PMS_P2;Temp;Humidity;BMP_temperature;BMP_pressure;BME280_temperature;BME280_humidity;BME280_pressure;Samples;Min_cycle;Max_cycle;Signal;HPM_P1;HPM_P2
2021/10/03 00:02:23;;;;;;;1.67;1.57;;;;;;;21.49;79.55;96912.34;5007313;28;20734;-64
2021/10/03 00:04:50;;;;;;;1.80;1.70;;;;;;;21.45;79.64;96905.47;5007700;28;20575;-64
2021/10/03 00:07:19;;;;;;;1.60;1.50;;;;;;;21.52;79.62;96914.97;4992045;28;20293;-64
2021/10/03 00:09:47;;;;;;;1.70;1.60;;;;;;;21.50;79.81;96909.81;5007290;28;20317;-64
2021/10/03 00:12:14;;;;;;;1.57;1.47;;;;;;;21.50;79.50;96899.59;5007177;28;20309;-64
2021/10/03 00:14:40;;;;;;;1.67;1.57;;;;;;;21.50;79.47;96903.88;5006144;28;20233;-64
2021/10/03 00:17:07;;;;;;;1.50;1.40;;;;;;;21.51;79.96;96909.00;4998906;28;20230;-64
2021/10/03 00:19:33;;;;;;;1.80;1.70;;;;;;;21.50;79.68;96897.03;5006178;28;20202;-64
2021/10/03 00:22:00;;;;;;;1.40;1.30;;;;;;;21.49;79.48;96887.66;5007204;28;20711;-65
2021/10/03 00:24:26;;;;;;;1.50;1.40;;;;;;;21.49;79.45;96890.22;5005338;28;20293;-64
2021/10/03 00:26:53;;;;;;;1.63;1.53;;;;;;;21.50;79.46;96893.63;5006618;28;20234;-64
2021/10/03 00:29:20;;;;;;;1.60;1.50;;;;;;;21.48;79.57;96898.72;5005245;28;20305;-64
2021/10/03 00:31:46;;;;;;;1.60;1.50;;;;;;;21.49;79.74;96894.44;5005637;28;20630;-64
2021/10/03 00:34:13;;;;;;;1.70;1.60;;;;;;;21.48;80.22;96896.16;5005944;28;20308;-66
2021/10/03 00:36:39;;;;;;;1.67;1.57;;;;;;;21.45;80.10;96893.56;5007155;28;20241;-64
2021/10/03 00:39:06;;;;;;;1.80;1.70;;;;;;;21.48;79.97;96891.06;5005226;28;20256;-64
2021/10/03 00:41:33;;;;;;;1.70;1.60;;;;;;;21.49;79.97;96892.78;5005572;28;20257;-65
2021/10/03 00:43:59;;;;;;;1.60;1.50;;;;;;;21.43;79.74;96876.44;5006564;28;20556;-65
2021/10/03 00:46:26;;;;;;;1.60;1.50;;;;;;;21.48;80.04;96883.38;5005564;28;20245;-64
2021/10/03 00:48:52;;;;;;;1.80;1.70;;;;;;;21.48;79.52;96883.38;5005014;28;20234;-64
2021/10/03 00:51:19;;;;;;;1.50;1.40;;;;;;;21.47;79.72;96873.97;4966408;28;1169817;-64
2021/10/03 00:53:46;;;;;;;1.80;1.70;;;;;;;21.45;79.75;96870.53;5007576;28;20971;-65
2021/10/03 00:56:15;;;;;;;1.50;1.40;;;;;;;21.49;79.94;96876.56;5007618;28;20289;-66
2021/10/03 00:58:42;;;;;;;1.67;1.50;;;;;;;21.49;80.02;96879.97;5007658;28;20198;-64
2021/10/03 01:01:09;;;;;;;1.80;1.70;;;;;;;21.43;79.88;96867.09;5003245;28;20329;-64
2021/10/03 01:03:36;;;;;;;1.67;1.57;;;;;;;21.48;79.78;96880.84;5000063;28;20596;-65
2021/10/03 01:06:04;;;;;;;1.50;1.40;;;;;;;21.49;79.83;96877.44;5005632;28;20207;-64
2021/10/03 01:08:30;;;;;;;1.60;1.50;;;;;;;21.49;79.71;96876.56;5006991;28;20222;-65
2021/10/03 01:10:57;;;;;;;1.90;1.70;;;;;;;21.48;79.66;96877.41;5006935;28;20245;-66
2021/10/03 01:13:24;;;;;;;1.60;1.50;;;;;;;21.47;79.82;96873.13;5005898;28;20289;-64
2021/10/03 01:15:55;;;;;;;1.63;1.53;;;;;;;21.50;79.65;96870.63;5007435;28;20233;-64
2021/10/03 01:18:22;;;;;;;1.53;1.43;;;;;;;21.50;79.45;96863.81;5006929;28;20232;-64
2021/10/03 01:20:48;;;;;;;1.50;1.40;;;;;;;21.50;79.85;96863.81;5005630;28;20244;-64
2021/10/03 01:23:15;;;;;;;1.40;1.30;;;;;;;21.51;79.89;96862.13;5005623;28;20237;-64
2021/10/03 01:25:48;;;;;;;2.40;1.50;;;;;;;21.50;79.62;96863.81;5005317;28;20905;-64
2021/10/03 01:28:15;;;;;;;1.50;1.40;;;;;;;21.51;79.77;96859.56;5006664;28;20293;-65
2021/10/03 01:30:43;;;;;;;1.67;1.57;;;;;;;21.50;79.70;96857.84;5006888;28;20257;-64
2021/10/03 01:33:10;;;;;;;1.50;1.40;;;;;;;21.51;79.63;96855.31;5000494;28;20291;-64
2021/10/03 01:35:37;;;;;;;1.50;1.40;;;;;;;21.50;79.73;96855.28;5007056;28;20644;-64
2021/10/03 01:38:03;;;;;;;1.67;1.57;;;;;;;21.50;79.79;96856.13;5006345;28;20206;-64
2021/10/03 01:40:30;;;;;;;1.57;1.47;;;;;;;21.50;79.55;96848.47;5007014;28;20252;-64
2021/10/03 01:42:58;;;;;;;1.80;1.70;;;;;;;21.49;79.74;96846.75;5006874;28;20272;-65
2021/10/03 01:45:24;;;;;;;1.47;1.37;;;;;;;21.50;79.33;96851.00;5007175;28;20290;-64
2021/10/03 01:48:06;;;;;;;1.70;1.60;;;;;;;21.48;79.69;96845.03;5006984;28;20241;-65
2021/10/03 01:50:40;;;;;;;1.70;1.60;;;;;;;21.48;79.89;96847.59;5003122;28;20264;-64
2021/10/03 01:53:07;;;;;;;1.70;1.60;;;;;;;21.49;79.81;96840.75;5005503;28;20321;-64
2021/10/03 01:55:35;;;;;;;2.40;1.87;;;;;;;21.47;80.02;96840.72;5007076;28;20293;-65
2021/10/03 01:58:01;;;;;;;1.90;1.80;;;;;;;21.48;80.13;96839.06;5006432;28;20289;-66
2021/10/03 02:00:28;;;;;;;1.70;1.60;;;;;;;21.47;80.07;96838.19;5006871;28;20298;-65
2021/10/03 02:02:59;;;;;;;1.70;1.60;;;;;;;21.47;80.23;96835.63;5009305;28;20221;-64
2021/10/03 02:05:26;;;;;;;1.77;1.67;;;;;;;21.48;80.00;96841.59;5010554;28;20245;-65
2021/10/03 02:07:53;;;;;;;1.60;1.50;;;;;;;21.47;79.76;96830.50;5008656;28;21081;-64
2021/10/03 02:10:20;;;;;;;1.50;1.40;;;;;;;21.48;80.07;96839.06;5009428;28;20257;-64
2021/10/03 02:12:48;;;;;;;1.67;1.57;;;;;;;21.47;79.83;96835.63;5010525;28;20272;-66
2021/10/03 02:15:16;;;;;;;1.70;1.60;;;;;;;21.48;79.81;96828.81;5010533;28;20238;-65
2021/10/03 02:17:42;;;;;;;1.70;1.60;;;;;;;21.48;79.71;96827.13;5006762;28;20202;-64
2021/10/03 02:20:09;;;;;;;1.53;1.43;;;;;;;21.47;79.73;96827.94;5010133;28;20233;-64
2021/10/03 02:22:36;;;;;;;1.80;1.70;;;;;;;21.48;79.74;96828.81;5008777;28;20241;-64
2021/10/03 02:25:03;;;;;;;1.80;1.70;;;;;;;21.49;79.81;96833.09;5000366;28;20238;-63
2021/10/03 02:27:29;;;;;;;1.60;1.50;;;;;;;21.49;79.86;96823.75;5009840;28;20687;-65
2021/10/03 02:29:56;;;;;;;1.47;1.37;;;;;;;21.50;80.00;96825.44;5010092;28;20811;-64
2021/10/03 02:32:22;;;;;;;1.80;1.70;;;;;;;21.49;80.21;96823.75;5009945;28;20309;-65
2021/10/03 02:34:49;;;;;;;3.40;1.60;;;;;;;21.50;79.95;96816.94;5009407;28;20289;-63
2021/10/03 02:37:15;;;;;;;1.90;1.80;;;;;;;21.50;80.10;96814.38;5009617;28;20234;-64
2021/10/03 02:39:42;;;;;;;1.70;1.60;;;;;;;21.50;80.07;96811.81;5009743;28;20728;-63
2021/10/03 02:42:09;;;;;;;1.67;1.57;;;;;;;21.42;79.72;96800.59;5009354;28;20218;-64
2021/10/03 02:44:35;;;;;;;1.70;1.60;;;;;;;21.50;79.72;96817.78;5008384;28;20305;-64
2021/10/03 02:47:02;;;;;;;2.00;1.90;;;;;;;21.50;79.83;96816.94;5008408;28;20302;-62
2021/10/03 02:49:29;;;;;;;1.70;1.60;;;;;;;21.50;79.56;96809.28;5009952;28;20230;-64
2021/10/03 02:51:55;;;;;;;1.63;1.53;;;;;;;21.37;79.58;96782.63;5009488;28;20313;-65
2021/10/03 02:54:22;;;;;;;1.80;1.70;;;;;;;21.50;80.00;96810.13;5008600;28;20289;-63
2021/10/03 02:56:48;;;;;;;1.57;1.47;;;;;;;21.50;79.64;96806.72;5009407;28;20237;-63
2021/10/03 02:59:15;;;;;;;2.10;1.60;;;;;;;21.49;79.48;96798.19;5009459;28;20571;-64
2021/10/03 03:01:42;;;;;;;1.73;1.63;;;;;;;21.49;79.68;96803.28;5008067;28;20669;-64
2021/10/03 03:04:08;;;;;;;1.63;1.53;;;;;;;21.48;79.88;96805.81;5002792;28;20201;-65
2021/10/03 03:06:35;;;;;;;1.90;1.80;;;;;;;21.47;79.96;96802.38;5010115;28;20649;-64
2021/10/03 03:09:01;;;;;;;1.90;1.80;;;;;;;21.45;80.00;96792.97;5008756;28;20289;-65
2021/10/03 03:11:28;;;;;;;1.60;1.50;;;;;;;20.90;80.08;96716.97;5009649;28;20290;-65
2021/10/03 03:13:54;;;;;;;1.80;1.70;;;;;;;21.44;80.16;96793.81;5007754;28;20450;-64
2021/10/03 03:16:21;;;;;;;1.60;1.50;;;;;;;21.45;80.57;96800.66;5009276;28;20203;-64
2021/10/03 03:18:48;;;;;;;1.80;1.70;;;;;;;21.48;79.91;96800.72;5007158;28;20206;-64
2021/10/03 03:21:14;;;;;;;2.17;1.97;;;;;;;21.48;79.73;96796.47;5009003;28;20305;-66
2021/10/03 03:23:41;;;;;;;1.87;1.77;;;;;;;21.48;80.02;96790.47;5009177;28;20645;-64
2021/10/03 03:26:08;;;;;;;1.80;1.70;;;;;;;21.48;80.03;96791.34;5001159;28;20210;-64
2021/10/03 03:28:35;;;;;;;2.00;1.90;;;;;;;21.48;79.98;96787.91;5008920;28;20245;-64
2021/10/03 03:31:02;;;;;;;2.07;1.97;;;;;;;21.48;79.86;96788.78;5008657;28;20963;-64
2021/10/03 03:33:28;;;;;;;1.90;1.80;;;;;;;21.45;79.95;96783.63;5008864;28;20209;-64
2021/10/03 03:35:55;;;;;;;1.93;1.83;;;;;;;21.49;79.82;96795.63;5008404;28;20234;-64
2021/10/03 03:38:21;;;;;;;1.70;1.60;;;;;;;21.50;79.95;96788.81;5009029;28;20317;-65
2021/10/03 03:40:48;;;;;;;2.07;1.93;;;;;;;21.46;79.98;96785.34;5009079;28;20202;-64
2021/10/03 03:43:15;;;;;;;1.90;1.80;;;;;;;21.46;79.83;96787.91;5008962;28;20723;-65
2021/10/03 03:45:41;;;;;;;1.80;1.70;;;;;;;21.50;79.75;96791.38;5007628;28;20303;-64
2021/10/03 03:48:08;;;;;;;1.63;1.53;;;;;;;21.46;79.97;96785.34;5005710;28;20241;-65
2021/10/03 03:50:34;;;;;;;1.90;1.80;;;;;;;21.49;80.07;96795.63;5008573;28;20226;-65
2021/10/03 03:53:01;;;;;;;1.70;1.60;;;;;;;21.49;79.47;96790.50;5009011;28;20268;-65
2021/10/03 03:55:28;;;;;;;1.90;1.80;;;;;;;21.49;79.70;96785.41;5008577;28;20739;-64
2021/10/03 03:57:54;;;;;;;2.10;1.90;;;;;;;21.49;80.24;96787.94;5008128;28;20586;-65
2021/10/03 04:00:21;;;;;;;2.00;1.90;;;;;;;21.49;79.69;96777.72;5008875;28;20281;-65
2021/10/03 04:02:47;;;;;;;1.70;1.60;;;;;;;21.49;79.68;96780.28;5008533;28;20276;-64
2021/10/03 04:05:14;;;;;;;1.70;1.60;;;;;;;21.50;79.94;96776.88;5007885;28;20198;-64
2021/10/03 04:07:41;;;;;;;2.23;2.10;;;;;;;21.50;79.85;96782.00;5008009;28;20242;-64
2021/10/03 04:10:07;;;;;;;1.93;1.83;;;;;;;21.47;79.68;96770.88;5006431;28;20313;-64
2021/10/03 04:12:35;;;;;;;1.70;1.60;;;;;;;21.51;79.66;96775.19;5008351;28;20639;-64
2021/10/03 04:15:01;;;;;;;2.20;2.00;;;;;;;21.49;79.66;96770.06;5007944;28;20206;-64
2021/10/03 04:17:28;;;;;;;1.80;1.70;;;;;;;21.50;79.62;96773.47;5008308;28;20280;-64
2021/10/03 04:19:54;;;;;;;1.70;1.60;;;;;;;21.49;79.98;96775.16;5008663;28;20335;-64
2021/10/03 04:22:21;;;;;;;2.40;2.20;;;;;;;21.48;80.14;96768.34;5007904;28;20254;-65
2021/10/03 04:24:49;;;;;;;2.00;1.90;;;;;;;21.47;79.64;96765.75;5007738;28;20245;-64
2021/10/03 04:27:16;;;;;;;2.13;2.03;;;;;;;21.47;80.01;96768.31;5007438;28;20290;-64
2021/10/03 04:29:42;;;;;;;2.20;2.10;;;;;;;21.47;80.06;96761.50;5007965;28;20735;-63
2021/10/03 04:32:09;;;;;;;2.20;2.10;;;;;;;21.47;80.24;96768.31;5007550;28;20256;-64
2021/10/03 04:34:36;;;;;;;2.03;1.90;;;;;;;21.48;80.20;96773.47;5007743;28;20238;-65
2021/10/03 04:37:02;;;;;;;1.90;1.80;;;;;;;21.47;80.19;96774.28;5007721;28;20241;-65
2021/10/03 04:39:31;;;;;;;1.80;1.70;;;;;;;21.48;80.10;96770.91;5008037;28;20218;-65
2021/10/03 04:41:58;;;;;;;1.90;1.80;;;;;;;21.47;80.13;96771.72;5007822;28;20256;-64
2021/10/03 04:44:25;;;;;;;2.00;1.90;;;;;;;21.48;79.96;96782.81;5007588;28;20237;-64
2021/10/03 04:46:51;;;;;;;2.00;1.90;;;;;;;21.43;80.05;96772.50;5007421;28;20294;-64
2021/10/03 04:49:18;;;;;;;2.10;1.90;;;;;;;21.45;80.18;96775.97;5007571;28;20285;-64
2021/10/03 04:51:44;;;;;;;2.10;2.00;;;;;;;21.48;79.96;96781.13;5007508;28;20321;-64
2021/10/03 04:54:11;;;;;;;1.90;1.80;;;;;;;21.48;80.03;96788.78;5007523;28;20238;-65
2021/10/03 04:56:38;;;;;;;2.07;1.97;;;;;;;21.49;79.89;96787.06;5006168;28;20206;-65
2021/10/03 04:59:05;;;;;;;2.50;2.30;;;;;;;21.32;79.79;96752.72;5007347;28;20256;-64
2021/10/03 05:01:31;;;;;;;2.10;2.00;;;;;;;21.49;79.98;96787.94;4998581;28;20314;-64
2021/10/03 05:03:58;;;;;;;1.93;1.83;;;;;;;21.49;79.49;96784.53;5006734;28;20289;-65
2021/10/03 05:06:26;;;;;;;1.97;1.87;;;;;;;21.49;80.02;96781.97;5007723;28;20264;-64
2021/10/03 05:08:53;;;;;;;2.07;1.90;;;;;;;21.50;80.00;96791.38;5007406;28;20241;-64
2021/10/03 05:11:20;;;;;;;2.10;2.00;;;;;;;21.50;79.88;96787.09;5007632;28;20570;-64
2021/10/03 05:13:47;;;;;;;2.40;2.20;;;;;;;21.48;79.86;96791.34;5007148;28;20233;-65
2021/10/03 05:16:13;;;;;;;2.03;1.93;;;;;;;21.50;79.95;96788.81;5007307;28;20252;-62
2021/10/03 05:18:40;;;;;;;2.50;2.30;;;;;;;21.49;80.41;96782.84;5007086;28;20245;-64
2021/10/03 05:21:09;;;;;;;2.50;2.30;;;;;;;21.47;79.86;96778.53;4999128;28;20300;-64
2021/10/03 05:23:36;;;;;;;2.27;2.10;;;;;;;21.49;80.20;96782.84;5006979;28;20582;-64
2021/10/03 05:26:02;;;;;;;1.97;1.87;;;;;;;21.50;79.69;96782.00;5007731;28;20730;-64
2021/10/03 05:28:29;;;;;;;2.40;2.20;;;;;;;21.51;79.86;96780.31;5007160;28;20293;-65
2021/10/03 05:30:56;;;;;;;2.20;2.10;;;;;;;21.48;79.74;96770.91;5006458;28;20233;-64
2021/10/03 05:33:23;;;;;;;2.37;2.17;;;;;;;21.51;79.93;96777.75;5006891;28;20229;-64
2021/10/03 05:35:50;;;;;;;2.30;2.10;;;;;;;21.44;80.10;96769.09;5006910;28;20206;-64
2021/10/03 05:38:16;;;;;;;2.57;2.37;;;;;;;21.49;80.02;96775.16;5010245;28;20696;-65
2021/10/03 05:40:43;;;;;;;2.40;2.20;;;;;;;21.48;80.25;96778.56;5011075;28;20236;-65
2021/10/03 05:43:09;;;;;;;2.10;2.00;;;;;;;21.47;79.73;96771.72;5010780;28;20240;-64
2021/10/03 05:45:36;;;;;;;2.60;2.40;;;;;;;21.47;80.04;96773.44;5010696;28;20253;-64
2021/10/03 05:48:03;;;;;;;2.30;2.10;;;;;;;21.47;80.42;96773.44;5010589;28;20790;-64
2021/10/03 05:50:29;;;;;;;2.53;2.33;;;;;;;21.47;80.30;96769.16;5010967;28;20308;-64
2021/10/03 05:52:56;;;;;;;2.37;2.27;;;;;;;21.47;79.89;96764.03;5010531;28;20683;-64
2021/10/03 05:55:23;;;;;;;2.57;2.37;;;;;;;21.47;80.14;96761.50;5010613;28;20731;-64
2021/10/03 05:57:49;;;;;;;2.07;1.97;;;;;;;20.90;80.06;96670.16;5010326;28;20703;-64
2021/10/03 06:00:16;;;;;;;2.30;2.10;;;;;;;21.47;80.26;96756.38;5011121;28;20323;-65
2021/10/03 06:02:42;;;;;;;2.50;2.30;;;;;;;21.45;80.05;96754.63;5011024;28;20261;-64
2021/10/03 06:05:09;;;;;;;2.27;2.13;;;;;;;21.48;80.12;96758.13;5011171;28;20258;-64
2021/10/03 06:07:36;;;;;;;2.37;2.20;;;;;;;21.48;80.07;96764.91;5010226;28;20759;-64
2021/10/03 06:10:04;;;;;;;2.63;2.43;;;;;;;21.48;79.90;96764.91;5010720;28;20313;-64
2021/10/03 06:12:30;;;;;;;2.60;2.40;;;;;;;21.43;79.72;96753.75;5010783;28;20263;-64
2021/10/03 06:14:57;;;;;;;2.60;2.40;;;;;;;21.45;80.13;96754.63;5010591;28;20297;-64
2021/10/03 06:17:23;;;;;;;2.40;2.20;;;;;;;21.45;80.11;96757.19;5010209;28;20293;-64
2021/10/03 06:19:50;;;;;;;2.90;2.70;;;;;;;21.48;79.89;96765.78;5011258;28;20245;-64
2021/10/03 06:22:21;;;;;;;2.50;2.30;;;;;;;21.47;79.91;96768.31;5010787;28;20253;-65
2021/10/03 06:24:47;;;;;;;2.50;2.30;;;;;;;21.49;79.79;96777.72;5010087;28;20301;-64
2021/10/03 06:27:14;;;;;;;2.17;2.07;;;;;;;21.48;80.08;96770.91;5009894;28;20237;-63
2021/10/03 06:29:40;;;;;;;2.60;2.40;;;;;;;21.49;79.36;96771.75;5010061;28;20237;-64
2021/10/03 06:32:07;;;;;;;2.17;2.07;;;;;;;21.46;79.75;96771.69;5005864;28;20341;-64
2021/10/03 06:34:34;;;;;;;2.53;2.37;;;;;;;21.49;79.85;96772.59;5009618;28;20209;-65
2021/10/03 06:37:00;;;;;;;2.30;2.10;;;;;;;21.49;80.05;96777.72;5009853;28;20289;-64
2021/10/03 06:39:27;;;;;;;2.20;2.10;;;;;;;21.49;79.89;96769.19;5009600;28;20658;-64
2021/10/03 06:41:53;;;;;;;2.50;2.30;;;;;;;21.50;79.81;96782.00;5010100;28;20257;-64
2021/10/03 06:44:20;;;;;;;2.50;2.30;;;;;;;21.49;79.66;96777.72;5009687;28;20249;-66
2021/10/03 06:46:47;;;;;;;2.50;2.30;;;;;;;21.46;79.75;96770.00;5009584;28;20699;-64
2021/10/03 06:49:13;;;;;;;2.80;2.60;;;;;;;21.51;79.80;96780.31;5011702;28;20203;-64
2021/10/03 06:51:43;;;;;;;2.40;2.20;;;;;;;21.49;79.73;96780.28;5011403;28;20240;-64
2021/10/03 06:54:10;;;;;;;2.60;2.40;;;;;;;21.50;79.75;96783.72;5005711;28;20770;-65
2021/10/03 06:56:37;;;;;;;2.50;2.30;;;;;;;21.49;79.91;96782.84;5011976;28;20230;-65
2021/10/03 06:59:04;;;;;;;2.60;2.40;;;;;;;21.45;79.85;96778.50;5012307;28;20241;-64
2021/10/03 07:01:30;;;;;;;2.40;2.20;;;;;;;21.48;80.08;96788.78;5012112;28;20286;-64
2021/10/03 07:03:57;;;;;;;2.80;2.60;;;;;;;21.47;80.01;96783.66;5011793;28;20206;-65
2021/10/03 07:06:24;;;;;;;3.57;2.40;;;;;;;21.48;79.96;96795.59;5012435;28;20242;-64
2021/10/03 07:08:50;;;;;;;2.60;2.40;;;;;;;21.47;79.88;96789.59;5010704;28;20757;-64
2021/10/03 07:11:17;;;;;;;2.70;2.50;;;;;;;21.47;80.09;96789.59;5012414;28;20229;-64
2021/10/03 07:13:44;;;;;;;2.93;2.73;;;;;;;21.48;80.17;96793.03;5010586;28;20730;-64
2021/10/03 07:16:12;;;;;;;2.90;2.70;;;;;;;21.48;80.09;96787.91;5010763;28;20198;-63
2021/10/03 07:18:38;;;;;;;2.73;2.53;;;;;;;21.48;80.22;96788.78;5011339;28;20252;-65
2021/10/03 07:21:05;;;;;;;2.60;2.40;;;;;;;21.44;80.00;96774.22;5012275;28;20253;-64
2021/10/03 07:23:32;;;;;;;2.60;2.40;;;;;;;21.47;80.34;96776.81;5011897;28;20236;-64
2021/10/03 07:25:59;;;;;;;2.60;2.40;;;;;;;21.47;79.94;96775.97;5010350;28;20238;-65
2021/10/03 07:28:26;;;;;;;2.57;2.37;;;;;;;21.48;80.11;96772.59;5012245;28;20202;-65
2021/10/03 07:30:52;;;;;;;2.40;2.20;;;;;;;21.48;80.11;96772.59;5010698;28;20666;-64
2021/10/03 07:33:19;;;;;;;2.50;2.30;;;;;;;21.48;79.91;96775.16;5012079;28;20285;-66
2021/10/03 07:35:46;;;;;;;2.67;2.47;;;;;;;21.46;79.84;96766.56;5012114;28;20206;-65
2021/10/03 07:38:13;;;;;;;2.60;2.40;;;;;;;21.48;80.05;96770.03;5011647;28;20199;-64
2021/10/03 07:40:40;;;;;;;2.70;2.50;;;;;;;21.49;80.03;96775.16;5011476;28;20240;-65
2021/10/03 07:43:06;;;;;;;2.50;2.30;;;;;;;21.48;79.87;96770.03;5009720;28;20254;-64
2021/10/03 07:45:33;;;;;;;2.50;2.30;;;;;;;21.45;80.12;96758.06;5011386;28;20237;-64
2021/10/03 07:48:00;;;;;;;2.80;2.60;;;;;;;21.49;80.05;96759.84;5011541;28;20630;-66
2021/10/03 07:50:26;;;;;;;2.53;2.33;;;;;;;21.48;79.81;96760.69;5011877;28;20674;-65
2021/10/03 07:52:53;;;;;;;2.60;2.40;;;;;;;21.49;79.85;96764.06;5010467;28;20324;-63
2021/10/03 07:55:20;;;;;;;2.80;2.60;;;;;;;21.49;80.00;96767.50;5014628;28;20235;-64
2021/10/03 07:57:46;;;;;;;2.90;2.70;;;;;;;21.46;79.99;96764.88;5013794;28;20221;-65
2021/10/03 08:00:13;;;;;;;2.83;2.63;;;;;;;21.50;79.65;96763.25;5014266;28;20198;-64
2021/10/03 08:02:40;;;;;;;2.60;2.40;;;;;;;21.49;79.99;96766.63;5014642;28;20269;-64
2021/10/03 08:05:07;;;;;;;2.93;2.67;;;;;;;21.49;79.88;96774.28;5014762;28;20206;-64
2021/10/03 08:07:33;;;;;;;2.77;2.57;;;;;;;21.49;79.75;96787.06;5014486;28;20241;-63
2021/10/03 08:10:00;;;;;;;2.80;2.60;;;;;;;21.50;80.23;96789.66;5014223;28;20217;-64
2021/10/03 08:12:28;;;;;;;2.37;2.17;;;;;;;21.49;79.96;96782.84;5013695;28;20763;-63
2021/10/03 08:14:55;;;;;;;2.60;2.40;;;;;;;21.49;79.63;96792.19;5014129;28;20229;-66
2021/10/03 08:17:21;;;;;;;2.70;2.50;;;;;;;21.49;80.06;96789.63;5014089;28;20230;-65
2021/10/03 08:19:48;;;;;;;2.70;2.50;;;;;;;21.48;80.11;96777.69;5013853;28;20206;-64
2021/10/03 08:22:15;;;;;;;2.60;2.40;;;;;;;21.47;80.08;96775.97;5011344;28;20638;-63
2021/10/03 08:24:41;;;;;;;2.40;2.20;;;;;;;21.47;80.50;96783.66;5011784;28;20237;-64
2021/10/03 08:27:08;;;;;;;2.83;2.63;;;;;;;21.47;80.32;96784.50;5007920;28;20668;-64
2021/10/03 08:29:34;;;;;;;2.93;2.73;;;;;;;21.47;80.15;96791.31;5011748;28;20248;-65
2021/10/03 08:32:02;;;;;;;2.87;2.67;;;;;;;21.46;80.32;96780.22;5010853;28;20313;-64
2021/10/03 08:34:28;;;;;;;2.50;2.30;;;;;;;21.46;80.36;96785.34;5010264;28;20587;-64
2021/10/03 08:36:55;;;;;;;2.73;2.53;;;;;;;21.47;80.42;96781.09;5010755;28;20619;-64
2021/10/03 08:39:21;;;;;;;2.70;2.50;;;;;;;21.47;80.17;96774.28;5011278;28;20258;-64
2021/10/03 08:41:48;;;;;;;3.80;2.50;;;;;;;21.44;80.18;96761.44;5010932;28;20241;-64
2021/10/03 08:44:15;;;;;;;2.70;2.50;;;;;;;21.47;79.99;96763.22;5011337;28;20575;-62
2021/10/03 08:46:43;;;;;;;2.37;2.17;;;;;;;21.47;79.66;96773.44;5008864;28;20202;-65
2021/10/03 08:49:10;;;;;;;2.50;2.30;;;;;;;21.46;80.06;96767.44;5009813;28;20230;-64
2021/10/03 08:51:37;;;;;;;2.70;2.50;;;;;;;21.47;80.06;96769.16;5009613;28;20316;-62
2021/10/03 08:54:03;;;;;;;2.70;2.50;;;;;;;21.47;80.05;96766.59;5010554;28;20221;-63
2021/10/03 08:56:30;;;;;;;2.80;2.60;;;;;;;21.48;79.97;96757.25;5010677;28;20241;-65
2021/10/03 08:58:56;;;;;;;2.90;2.70;;;;;;;21.48;80.08;96760.69;5010034;28;20202;-64
2021/10/03 09:01:23;;;;;;;2.70;2.50;;;;;;;21.49;79.91;96753.84;5010285;28;20254;-64
2021/10/03 09:03:51;;;;;;;2.40;2.30;;;;;;;21.48;80.08;96755.56;5009288;28;20590;-64
2021/10/03 09:06:20;;;;;;;2.60;2.40;;;;;;;21.47;80.09;96752.97;5009779;28;20198;-64
2021/10/03 09:08:49;;;;;;;2.50;2.30;;;;;;;21.50;79.96;96753.03;5010103;28;20235;-64
2021/10/03 09:11:16;;;;;;;2.73;2.53;;;;;;;21.47;79.77;96755.53;5010235;28;20305;-64
2021/10/03 09:13:48;;;;;;;2.90;2.67;;;;;;;21.49;79.81;96757.28;5009714;28;20234;-64
2021/10/03 09:16:21;;;;;;;2.70;2.50;;;;;;;21.50;79.71;96765.81;5010107;28;20202;-64
2021/10/03 09:18:59;;;;;;;2.73;2.53;;;;;;;21.50;79.81;96763.25;5010275;28;20199;-64
2021/10/03 09:21:29;;;;;;;2.73;2.53;;;;;;;21.50;79.83;96756.44;5010098;28;20249;-64
2021/10/03 09:24:11;;;;;;;3.00;2.80;;;;;;;21.50;79.99;96750.47;5010314;28;20198;-65
2021/10/03 09:26:50;;;;;;;2.60;2.40;;;;;;;21.50;79.68;96747.91;5009989;28;20637;-64
2021/10/03 09:29:20;;;;;;;2.50;2.30;;;;;;;21.48;79.95;96745.34;5005062;28;20269;-64
2021/10/03 09:32:09;;;;;;;2.80;2.60;;;;;;;21.48;80.01;96737.66;5010127;28;20261;-65
2021/10/03 09:34:37;;;;;;;2.60;2.40;;;;;;;21.48;80.04;96745.34;5008452;28;20286;-64
2021/10/03 09:37:19;;;;;;;2.23;2.13;;;;;;;21.47;79.88;96741.03;5010351;28;20617;-65
2021/10/03 09:39:49;;;;;;;2.60;2.40;;;;;;;21.47;80.15;96741.03;5010238;28;20294;-64
2021/10/03 09:42:16;;;;;;;2.50;2.30;;;;;;;21.47;80.11;96732.53;5010190;28;20268;-62
2021/10/03 09:45:08;;;;;;;2.73;2.47;;;;;;;21.47;80.32;96724.84;5010089;28;20237;-64
2021/10/03 09:47:36;;;;;;;2.60;2.40;;;;;;;21.46;80.33;96718.88;5009781;28;20206;-64
2021/10/03 09:50:03;;;;;;;2.67;2.47;;;;;;;21.48;80.07;96729.13;5009765;28;20755;-64
2021/10/03 09:52:30;;;;;;;2.40;2.20;;;;;;;21.45;80.16;96719.72;5044402;22;20228;-72
2021/10/03 09:54:57;;;;;;;2.60;2.40;;;;;;;21.44;80.00;96717.97;5031221;28;20225;-76
2021/10/03 09:57:23;;;;;;;2.90;2.40;;;;;;;21.47;80.00;96733.38;5015761;28;20225;-71
2021/10/03 09:59:50;;;;;;;2.53;2.33;;;;;;;21.35;80.12;96702.47;5015553;28;20198;-75
2021/10/03 10:02:16;;;;;;;2.40;2.20;;;;;;;21.47;79.98;96725.69;5041387;28;20212;-74
2021/10/03 10:04:43;;;;;;;2.40;2.23;;;;;;;21.47;79.90;96725.69;5037860;28;20239;-71
2021/10/03 10:07:09;;;;;;;2.43;2.30;;;;;;;21.47;79.90;96715.47;5024670;28;20205;-72
2021/10/03 10:09:36;;;;;;;2.47;2.27;;;;;;;21.44;80.02;96715.41;5043309;28;20624;-75
2021/10/03 10:12:13;;;;;;;2.70;2.50;;;;;;;21.45;80.06;96716.28;5038976;28;20727;-74
2021/10/03 10:14:43;;;;;;;2.13;2.03;;;;;;;21.34;80.11;96693.09;5021454;28;20228;-72
2021/10/03 10:17:35;;;;;;;2.43;2.23;;;;;;;21.48;79.97;96717.22;5019409;28;20201;-72
2021/10/03 10:20:03;;;;;;;2.63;2.43;;;;;;;21.49;79.94;96712.94;5043240;28;20200;-75
2021/10/03 10:22:36;;;;;;;3.03;2.50;;;;;;;21.49;79.96;96710.38;5046022;28;20213;-72
2021/10/03 10:25:08;;;;;;;2.60;2.40;;;;;;;21.35;79.89;96684.59;5047556;28;20198;-72
2021/10/03 10:27:34;;;;;;;2.77;2.57;;;;;;;21.49;79.96;96711.25;5067989;28;20232;-72
2021/10/03 10:30:12;;;;;;;2.40;2.20;;;;;;;21.44;80.13;96706.91;5040564;28;20201;-72
2021/10/03 10:32:57;;;;;;;2.60;2.40;;;;;;;21.49;80.13;96715.50;5044135;28;20263;-72
2021/10/03 10:35:24;;;;;;;2.50;2.30;;;;;;;21.43;80.20;96700.94;5044082;28;20228;-72
2021/10/03 10:37:53;;;;;;;2.63;2.43;;;;;;;21.49;80.10;96708.69;5046066;28;20207;-74
2021/10/03 10:40:22;;;;;;;2.63;2.43;;;;;;;21.49;80.29;96708.69;5043353;28;20263;-72
2021/10/03 10:42:53;;;;;;;2.20;2.10;;;;;;;21.15;79.83;96644.22;5047668;28;20217;-72
2021/10/03 10:45:41;;;;;;;2.37;2.27;;;;;;;21.49;80.05;96708.69;5041739;28;20553;-72
2021/10/03 10:48:13;;;;;;;2.60;2.40;;;;;;;21.49;80.05;96702.72;5047230;28;20193;-72
2021/10/03 10:50:41;;;;;;;2.50;2.30;;;;;;;21.47;79.96;96692.47;5043679;28;20684;-72
2021/10/03 10:53:32;;;;;;;2.20;2.10;;;;;;;21.47;79.77;96689.91;5044479;28;20257;-73
2021/10/03 10:56:18;;;;;;;2.30;2.20;;;;;;;21.47;80.18;96692.47;5045323;28;20197;-74
2021/10/03 10:58:51;;;;;;;2.60;2.40;;;;;;;21.46;80.12;96685.66;5048540;28;20251;-74
2021/10/03 11:01:29;;;;;;;2.37;2.17;;;;;;;21.46;80.14;96690.75;5051181;28;20193;-75
2021/10/03 11:03:59;;;;;;;2.50;2.30;;;;;;;21.36;80.14;96671.00;5045125;28;20201;-72
2021/10/03 11:06:31;;;;;;;2.40;2.20;;;;;;;21.45;80.29;96683.06;5043647;28;20711;-72
2021/10/03 11:08:58;;;;;;;2.37;2.23;;;;;;;21.46;80.55;96680.53;5050717;28;20201;-73
2021/10/03 11:11:38;;;;;;;2.00;1.90;;;;;;;21.46;80.10;96672.00;5044500;28;20237;-74
2021/10/03 11:14:09;;;;;;;2.40;2.27;;;;;;;21.46;79.92;96680.53;5049476;28;20225;-73
2021/10/03 11:16:43;;;;;;;2.50;2.30;;;;;;;21.38;80.28;96661.66;5045108;28;20202;-75
2021/10/03 11:19:16;;;;;;;2.20;2.10;;;;;;;21.35;80.19;96653.09;5039492;28;20204;-71
2021/10/03 11:21:45;;;;;;;2.20;2.10;;;;;;;21.19;80.10;96626.41;5042840;28;20256;-73
2021/10/03 11:24:18;;;;;;;2.47;2.27;;;;;;;21.06;80.10;96606.63;5033576;28;20238;-72
2021/10/03 11:26:49;;;;;;;2.60;2.40;;;;;;;21.44;80.02;96664.28;5026115;28;20293;-74
2021/10/03 11:29:17;;;;;;;2.50;2.30;;;;;;;21.17;80.13;96619.56;5033876;28;20232;-72
2021/10/03 11:31:49;;;;;;;2.53;2.33;;;;;;;21.36;80.42;96655.66;5045213;28;20260;-72
2021/10/03 11:34:43;;;;;;;2.43;2.30;;;;;;;21.47;80.11;96666.91;5038916;28;20201;-73
2021/10/03 11:37:23;;;;;;;2.53;2.33;;;;;;;21.48;79.93;96658.41;5051433;28;20256;-73
2021/10/03 11:39:54;;;;;;;2.20;2.10;;;;;;;21.48;79.88;96652.44;5041570;28;20239;-73